sensor_id;sensor_type;location;lat;lon;timestamp;P1;durP1;ratioP1;P2;durP2;ratioP2
31390;SDS011;18022;45.492;11.548;2023-02-16T00:01:33;115.70;;;68.13;;
31390;SDS011;18022;45.492;11.548;2023-02-16T00:03:59;102.27;;;60.37;;
31390;SDS011;18022;45.492;11.548;2023-02-16T00:06:26;92.47;;;57.55;;
31390;SDS011;18022;45.492;11.548;2023-02-16T00:08:54;94.93;;;57.50;;
31390;SDS011;18022;45.492;11.548;2023-02-16T00:11:27;100.78;;;60.28;;
31390;SDS011;18022;45.492;11.548;2023-02-16T00:14:12;111.55;;;65.55;;
31390;SDS011;18022;45.492;11.548;2023-02-16T00:16:38;97.32;;;60.38;;
31390;SDS011;18022;45.492;11.548;2023-02-16T00:19:39;102.78;;;60.03;;
31390;SDS011;18022;45.492;11.548;2023-02-16T00:21:57;98.32;;;59.33;;
31390;SDS011;18022;45.492;11.548;2023-02-16T00:24:24;108.45;;;60.60;;
31390;SDS011;18022;45.492;11.548;2023-02-16T00:26:51;112.50;;;64.65;;
31390;SDS011;18022;45.492;11.548;2023-02-16T00:29:22;116.50;;;66.05;;
31390;SDS011;18022;45.492;11.548;2023-02-16T00:31:49;119.45;;;69.10;;
31390;SDS011;18022;45.492;11.548;2023-02-16T00:36:47;127.25;;;69.85;;
31390;SDS011;18022;45.492;11.548;2023-02-16T00:39:13;127.22;;;69.35;;
31390;SDS011;18022;45.492;11.548;2023-02-16T00:41:39;120.57;;;69.38;;
31390;SDS011;18022;45.492;11.548;2023-02-16T00:44:15;106.45;;;61.22;;
31390;SDS011;18022;45.492;11.548;2023-02-16T00:46:42;113.45;;;64.57;;
31390;SDS011;18022;45.492;11.548;2023-02-16T00:49:15;115.80;;;65.85;;
31390;SDS011;18022;45.492;11.548;2023-02-16T00:51:41;114.25;;;64.93;;
31390;SDS011;18022;45.492;11.548;2023-02-16T00:54:08;112.80;;;65.55;;
31390;SDS011;18022;45.492;11.548;2023-02-16T00:56:34;94.53;;;57.67;;
31390;SDS011;18022;45.492;11.548;2023-02-16T00:59:01;85.75;;;53.25;;
31390;SDS011;18022;45.492;11.548;2023-02-16T01:01:28;86.03;;;53.15;;
31390;SDS011;18022;45.492;11.548;2023-02-16T01:03:56;79.35;;;51.65;;
31390;SDS011;18022;45.492;11.548;2023-02-16T01:09:15;95.05;;;57.38;;
31390;SDS011;18022;45.492;11.548;2023-02-16T01:12:00;100.93;;;60.22;;
31390;SDS011;18022;45.492;11.548;2023-02-16T01:14:28;102.22;;;60.35;;
31390;SDS011;18022;45.492;11.548;2023-02-16T01:16:54;108.30;;;63.35;;
31390;SDS011;18022;45.492;11.548;2023-02-16T01:19:20;120.18;;;66.63;;
31390;SDS011;18022;45.492;11.548;2023-02-16T01:21:46;117.95;;;67.43;;
31390;SDS011;18022;45.492;11.548;2023-02-16T01:24:12;114.00;;;65.32;;
31390;SDS011;18022;45.492;11.548;2023-02-16T01:26:39;122.10;;;67.45;;
31390;SDS011;18022;45.492;11.548;2023-02-16T01:29:08;113.65;;;64.05;;
31390;SDS011;18022;45.492;11.548;2023-02-16T01:31:37;104.72;;;62.03;;
31390;SDS011;18022;45.492;11.548;2023-02-16T01:34:03;114.65;;;65.05;;
31390;SDS011;18022;45.492;11.548;2023-02-16T01:36:33;111.60;;;61.53;;
31390;SDS011;18022;45.492;11.548;2023-02-16T01:39:00;99.75;;;58.58;;
31390;SDS011;18022;45.492;11.548;2023-02-16T01:43:59;91.97;;;55.53;;
31390;SDS011;18022;45.492;11.548;2023-02-16T01:46:44;94.80;;;57.88;;
31390;SDS011;18022;45.492;11.548;2023-02-16T01:49:13;86.88;;;53.03;;
31390;SDS011;18022;45.492;11.548;2023-02-16T01:51:46;92.20;;;57.47;;
31390;SDS011;18022;45.492;11.548;2023-02-16T01:56:52;75.85;;;48.60;;
31390;SDS011;18022;45.492;11.548;2023-02-16T01:59:27;92.53;;;53.30;;
31390;SDS011;18022;45.492;11.548;2023-02-16T02:01:57;90.97;;;54.67;;
31390;SDS011;18022;45.492;11.548;2023-02-16T02:07:24;83.32;;;51.20;;
31390;SDS011;18022;45.492;11.548;2023-02-16T02:10:13;80.80;;;51.15;;
31390;SDS011;18022;45.492;11.548;2023-02-16T02:15:31;83.40;;;52.05;;
31390;SDS011;18022;45.492;11.548;2023-02-16T02:17:57;108.75;;;65.22;;
31390;SDS011;18022;45.492;11.548;2023-02-16T02:23:31;94.85;;;57.70;;
31390;SDS011;18022;45.492;11.548;2023-02-16T02:28:44;80.72;;;51.47;;
31390;SDS011;18022;45.492;11.548;2023-02-16T02:36:18;57.33;;;41.30;;
31390;SDS011;18022;45.492;11.548;2023-02-16T02:39:03;57.90;;;39.17;;
31390;SDS011;18022;45.492;11.548;2023-02-16T02:41:34;66.85;;;41.50;;
31390;SDS011;18022;45.492;11.548;2023-02-16T02:44:21;65.03;;;43.33;;
31390;SDS011;18022;45.492;11.548;2023-02-16T02:46:48;58.47;;;41.50;;
31390;SDS011;18022;45.492;11.548;2023-02-16T02:49:14;54.50;;;37.97;;
31390;SDS011;18022;45.492;11.548;2023-02-16T02:51:40;52.97;;;38.45;;
31390;SDS011;18022;45.492;11.548;2023-02-16T02:54:13;52.95;;;39.35;;
31390;SDS011;18022;45.492;11.548;2023-02-16T02:59:56;46.45;;;34.78;;
31390;SDS011;18022;45.492;11.548;2023-02-16T03:02:43;51.35;;;38.55;;
31390;SDS011;18022;45.492;11.548;2023-02-16T03:05:10;36.30;;;29.63;;
31390;SDS011;18022;45.492;11.548;2023-02-16T03:07:38;35.33;;;30.08;;
31390;SDS011;18022;45.492;11.548;2023-02-16T03:12:59;31.25;;;27.88;;
31390;SDS011;18022;45.492;11.548;2023-02-16T03:17:52;44.70;;;33.08;;
31390;SDS011;18022;45.492;11.548;2023-02-16T03:20:38;34.25;;;29.38;;
31390;SDS011;18022;45.492;11.548;2023-02-16T03:23:23;34.33;;;28.85;;
31390;SDS011;18022;45.492;11.548;2023-02-16T03:26:08;48.42;;;36.72;;
31390;SDS011;18022;45.492;11.548;2023-02-16T03:28:53;46.20;;;35.55;;
31390;SDS011;18022;45.492;11.548;2023-02-16T03:31:39;48.38;;;35.58;;
31390;SDS011;18022;45.492;11.548;2023-02-16T03:34:05;47.92;;;35.20;;
31390;SDS011;18022;45.492;11.548;2023-02-16T03:36:33;51.33;;;35.00;;
31390;SDS011;18022;45.492;11.548;2023-02-16T03:39:00;44.60;;;32.42;;
31390;SDS011;18022;45.492;11.548;2023-02-16T03:41:26;46.63;;;34.15;;
31390;SDS011;18022;45.492;11.548;2023-02-16T03:43:56;53.70;;;39.25;;
31390;SDS011;18022;45.492;11.548;2023-02-16T03:46:22;51.47;;;37.75;;
31390;SDS011;18022;45.492;11.548;2023-02-16T03:48:48;50.78;;;35.20;;
31390;SDS011;18022;45.492;11.548;2023-02-16T03:51:14;49.13;;;35.55;;
31390;SDS011;18022;45.492;11.548;2023-02-16T03:53:41;40.17;;;30.10;;
31390;SDS011;18022;45.492;11.548;2023-02-16T03:56:07;33.53;;;27.45;;
31390;SDS011;18022;45.492;11.548;2023-02-16T03:58:33;36.78;;;29.90;;
31390;SDS011;18022;45.492;11.548;2023-02-16T04:00:59;47.05;;;33.45;;
31390;SDS011;18022;45.492;11.548;2023-02-16T04:03:25;43.60;;;32.95;;
31390;SDS011;18022;45.492;11.548;2023-02-16T04:05:51;49.45;;;37.47;;
31390;SDS011;18022;45.492;11.548;2023-02-16T04:08:17;53.80;;;39.65;;
31390;SDS011;18022;45.492;11.548;2023-02-16T04:10:43;43.08;;;33.47;;
31390;SDS011;18022;45.492;11.548;2023-02-16T04:13:09;38.60;;;29.98;;
31390;SDS011;18022;45.492;11.548;2023-02-16T04:15:35;35.63;;;27.67;;
31390;SDS011;18022;45.492;11.548;2023-02-16T04:18:01;35.85;;;27.23;;
31390;SDS011;18022;45.492;11.548;2023-02-16T04:20:30;36.30;;;28.88;;
31390;SDS011;18022;45.492;11.548;2023-02-16T04:22:56;42.63;;;30.85;;
31390;SDS011;18022;45.492;11.548;2023-02-16T04:25:22;41.95;;;32.65;;
31390;SDS011;18022;45.492;11.548;2023-02-16T04:27:48;50.40;;;35.50;;
31390;SDS011;18022;45.492;11.548;2023-02-16T04:30:17;52.10;;;35.40;;
31390;SDS011;18022;45.492;11.548;2023-02-16T04:32:43;55.40;;;35.38;;
31390;SDS011;18022;45.492;11.548;2023-02-16T04:35:09;51.42;;;34.88;;
31390;SDS011;18022;45.492;11.548;2023-02-16T04:37:35;59.00;;;36.85;;
31390;SDS011;18022;45.492;11.548;2023-02-16T04:40:02;60.75;;;38.70;;
31390;SDS011;18022;45.492;11.548;2023-02-16T04:42:28;57.33;;;38.00;;
31390;SDS011;18022;45.492;11.548;2023-02-16T04:44:54;60.13;;;38.47;;
31390;SDS011;18022;45.492;11.548;2023-02-16T04:47:20;63.33;;;39.80;;
31390;SDS011;18022;45.492;11.548;2023-02-16T04:49:49;70.43;;;42.20;;
31390;SDS011;18022;45.492;11.548;2023-02-16T04:52:15;65.05;;;40.95;;
31390;SDS011;18022;45.492;11.548;2023-02-16T04:54:42;69.28;;;42.22;;
31390;SDS011;18022;45.492;11.548;2023-02-16T04:57:08;65.40;;;39.33;;
31390;SDS011;18022;45.492;11.548;2023-02-16T04:59:34;63.92;;;40.38;;
31390;SDS011;18022;45.492;11.548;2023-02-16T05:02:01;59.25;;;38.78;;
31390;SDS011;18022;45.492;11.548;2023-02-16T05:04:27;57.70;;;37.17;;
31390;SDS011;18022;45.492;11.548;2023-02-16T05:06:53;52.08;;;35.45;;
31390;SDS011;18022;45.492;11.548;2023-02-16T05:09:19;56.13;;;38.13;;
31390;SDS011;18022;45.492;11.548;2023-02-16T05:11:45;51.00;;;35.80;;
31390;SDS011;18022;45.492;11.548;2023-02-16T05:14:30;49.60;;;36.67;;
31390;SDS011;18022;45.492;11.548;2023-02-16T05:17:06;52.17;;;36.17;;
31390;SDS011;18022;45.492;11.548;2023-02-16T05:19:32;50.58;;;37.72;;
31390;SDS011;18022;45.492;11.548;2023-02-16T05:21:58;49.60;;;36.00;;
31390;SDS011;18022;45.492;11.548;2023-02-16T05:24:24;49.28;;;36.80;;
31390;SDS011;18022;45.492;11.548;2023-02-16T05:26:50;56.03;;;37.60;;
31390;SDS011;18022;45.492;11.548;2023-02-16T05:29:16;66.38;;;41.25;;
31390;SDS011;18022;45.492;11.548;2023-02-16T05:31:42;65.10;;;40.83;;
31390;SDS011;18022;45.492;11.548;2023-02-16T05:34:08;66.22;;;42.63;;
31390;SDS011;18022;45.492;11.548;2023-02-16T05:36:34;67.25;;;42.25;;
31390;SDS011;18022;45.492;11.548;2023-02-16T05:39:00;70.57;;;45.20;;
31390;SDS011;18022;45.492;11.548;2023-02-16T05:41:26;67.50;;;42.95;;
31390;SDS011;18022;45.492;11.548;2023-02-16T05:43:53;65.95;;;42.40;;
31390;SDS011;18022;45.492;11.548;2023-02-16T05:46:20;66.03;;;41.93;;
31390;SDS011;18022;45.492;11.548;2023-02-16T05:48:47;58.75;;;39.97;;
31390;SDS011;18022;45.492;11.548;2023-02-16T05:51:13;62.47;;;42.40;;
31390;SDS011;18022;45.492;11.548;2023-02-16T05:53:39;57.72;;;39.13;;
31390;SDS011;18022;45.492;11.548;2023-02-16T05:56:05;63.17;;;39.47;;
31390;SDS011;18022;45.492;11.548;2023-02-16T05:58:31;59.38;;;39.67;;
31390;SDS011;18022;45.492;11.548;2023-02-16T06:00:57;68.78;;;42.42;;
31390;SDS011;18022;45.492;11.548;2023-02-16T06:03:24;78.18;;;47.35;;
31390;SDS011;18022;45.492;11.548;2023-02-16T06:05:53;72.82;;;46.70;;
31390;SDS011;18022;45.492;11.548;2023-02-16T06:08:19;69.07;;;44.67;;
31390;SDS011;18022;45.492;11.548;2023-02-16T06:10:47;144.10;;;107.57;;
31390;SDS011;18022;45.492;11.548;2023-02-16T06:13:13;81.47;;;51.75;;
31390;SDS011;18022;45.492;11.548;2023-02-16T06:15:39;90.05;;;52.83;;
31390;SDS011;18022;45.492;11.548;2023-02-16T06:18:05;79.20;;;49.65;;
31390;SDS011;18022;45.492;11.548;2023-02-16T06:20:31;90.75;;;52.33;;
31390;SDS011;18022;45.492;11.548;2023-02-16T06:22:57;89.93;;;54.90;;
31390;SDS011;18022;45.492;11.548;2023-02-16T06:25:23;83.57;;;51.95;;
31390;SDS011;18022;45.492;11.548;2023-02-16T06:27:49;86.60;;;52.72;;
31390;SDS011;18022;45.492;11.548;2023-02-16T06:30:16;88.80;;;52.90;;
31390;SDS011;18022;45.492;11.548;2023-02-16T06:32:43;94.95;;;56.22;;
31390;SDS011;18022;45.492;11.548;2023-02-16T06:35:09;88.97;;;54.53;;
31390;SDS011;18022;45.492;11.548;2023-02-16T06:37:35;88.60;;;55.00;;
31390;SDS011;18022;45.492;11.548;2023-02-16T06:40:01;61.35;;;36.90;;
31390;SDS011;18022;45.492;11.548;2023-02-16T06:42:27;87.85;;;53.35;;
31390;SDS011;18022;45.492;11.548;2023-02-16T06:44:53;97.43;;;59.65;;
31390;SDS011;18022;45.492;11.548;2023-02-16T06:47:19;98.30;;;59.53;;
31390;SDS011;18022;45.492;11.548;2023-02-16T06:49:45;75.30;;;45.38;;
31390;SDS011;18022;45.492;11.548;2023-02-16T06:52:11;92.57;;;55.88;;
31390;SDS011;18022;45.492;11.548;2023-02-16T06:54:37;55.60;;;32.85;;
31390;SDS011;18022;45.492;11.548;2023-02-16T06:57:03;83.20;;;53.20;;
31390;SDS011;18022;45.492;11.548;2023-02-16T06:59:29;86.82;;;52.40;;
31390;SDS011;18022;45.492;11.548;2023-02-16T07:01:55;73.47;;;47.60;;
31390;SDS011;18022;45.492;11.548;2023-02-16T07:04:21;73.07;;;48.00;;
31390;SDS011;18022;45.492;11.548;2023-02-16T07:06:47;78.82;;;49.42;;
31390;SDS011;18022;45.492;11.548;2023-02-16T07:09:13;84.95;;;53.20;;
31390;SDS011;18022;45.492;11.548;2023-02-16T07:11:39;84.10;;;53.45;;
31390;SDS011;18022;45.492;11.548;2023-02-16T07:14:05;98.10;;;55.45;;
31390;SDS011;18022;45.492;11.548;2023-02-16T07:16:32;84.22;;;53.45;;
31390;SDS011;18022;45.492;11.548;2023-02-16T07:18:58;76.93;;;50.08;;
31390;SDS011;18022;45.492;11.548;2023-02-16T07:21:24;73.55;;;47.83;;
31390;SDS011;18022;45.492;11.548;2023-02-16T07:23:51;75.18;;;49.75;;
31390;SDS011;18022;45.492;11.548;2023-02-16T07:26:17;82.88;;;51.58;;
31390;SDS011;18022;45.492;11.548;2023-02-16T07:28:43;79.63;;;50.83;;
31390;SDS011;18022;45.492;11.548;2023-02-16T07:31:10;106.07;;;64.28;;
31390;SDS011;18022;45.492;11.548;2023-02-16T07:33:36;88.33;;;56.23;;
31390;SDS011;18022;45.492;11.548;2023-02-16T07:36:02;73.00;;;49.13;;
31390;SDS011;18022;45.492;11.548;2023-02-16T07:38:28;73.40;;;47.15;;
31390;SDS011;18022;45.492;11.548;2023-02-16T07:40:55;69.82;;;47.38;;
31390;SDS011;18022;45.492;11.548;2023-02-16T07:43:24;80.00;;;51.97;;
31390;SDS011;18022;45.492;11.548;2023-02-16T07:45:50;75.00;;;49.97;;
31390;SDS011;18022;45.492;11.548;2023-02-16T07:48:16;100.40;;;62.38;;
31390;SDS011;18022;45.492;11.548;2023-02-16T07:50:43;113.32;;;68.20;;
31390;SDS011;18022;45.492;11.548;2023-02-16T07:53:09;109.97;;;68.50;;
31390;SDS011;18022;45.492;11.548;2023-02-16T07:55:38;115.07;;;69.82;;
31390;SDS011;18022;45.492;11.548;2023-02-16T07:58:05;99.63;;;62.60;;
31390;SDS011;18022;45.492;11.548;2023-02-16T08:00:31;92.75;;;59.60;;
31390;SDS011;18022;45.492;11.548;2023-02-16T08:02:57;98.05;;;61.03;;
31390;SDS011;18022;45.492;11.548;2023-02-16T08:05:23;93.32;;;59.08;;
31390;SDS011;18022;45.492;11.548;2023-02-16T08:07:49;99.47;;;61.00;;
31390;SDS011;18022;45.492;11.548;2023-02-16T08:10:15;107.32;;;66.40;;
31390;SDS011;18022;45.492;11.548;2023-02-16T08:12:41;110.20;;;67.10;;
31390;SDS011;18022;45.492;11.548;2023-02-16T08:15:09;103.75;;;64.32;;
31390;SDS011;18022;45.492;11.548;2023-02-16T08:17:36;101.43;;;65.20;;
31390;SDS011;18022;45.492;11.548;2023-02-16T08:20:03;104.75;;;64.80;;
31390;SDS011;18022;45.492;11.548;2023-02-16T08:22:30;108.70;;;68.43;;
31390;SDS011;18022;45.492;11.548;2023-02-16T08:24:56;118.85;;;71.82;;
31390;SDS011;18022;45.492;11.548;2023-02-16T08:27:23;77.07;;;48.67;;
31390;SDS011;18022;45.492;11.548;2023-02-16T08:29:51;116.20;;;70.53;;
31390;SDS011;18022;45.492;11.548;2023-02-16T08:32:17;114.45;;;68.88;;
31390;SDS011;18022;45.492;11.548;2023-02-16T08:34:43;114.30;;;70.80;;
31390;SDS011;18022;45.492;11.548;2023-02-16T08:37:10;115.50;;;72.20;;
31390;SDS011;18022;45.492;11.548;2023-02-16T08:39:36;113.55;;;69.53;;
31390;SDS011;18022;45.492;11.548;2023-02-16T08:42:02;122.18;;;74.90;;
31390;SDS011;18022;45.492;11.548;2023-02-16T08:44:28;120.43;;;73.55;;
31390;SDS011;18022;45.492;11.548;2023-02-16T08:46:55;122.10;;;74.53;;
31390;SDS011;18022;45.492;11.548;2023-02-16T08:49:27;122.32;;;76.05;;
31390;SDS011;18022;45.492;11.548;2023-02-16T08:51:54;120.90;;;76.28;;
31390;SDS011;18022;45.492;11.548;2023-02-16T08:54:22;122.13;;;77.55;;
31390;SDS011;18022;45.492;11.548;2023-02-16T08:56:50;120.78;;;74.28;;
31390;SDS011;18022;45.492;11.548;2023-02-16T08:59:18;120.68;;;71.75;;
31390;SDS011;18022;45.492;11.548;2023-02-16T09:01:44;118.88;;;71.30;;
31390;SDS011;18022;45.492;11.548;2023-02-16T09:04:11;116.50;;;71.22;;
31390;SDS011;18022;45.492;11.548;2023-02-16T09:06:38;121.35;;;72.53;;
31390;SDS011;18022;45.492;11.548;2023-02-16T09:09:05;111.38;;;69.78;;
31390;SDS011;18022;45.492;11.548;2023-02-16T09:11:32;110.93;;;69.65;;
31390;SDS011;18022;45.492;11.548;2023-02-16T09:13:59;115.95;;;72.13;;
31390;SDS011;18022;45.492;11.548;2023-02-16T09:16:25;117.68;;;70.20;;
31390;SDS011;18022;45.492;11.548;2023-02-16T09:21:22;87.93;;;54.75;;
31390;SDS011;18022;45.492;11.548;2023-02-16T09:23:49;92.93;;;54.58;;
31390;SDS011;18022;45.492;11.548;2023-02-16T09:26:16;90.25;;;53.88;;
31390;SDS011;18022;45.492;11.548;2023-02-16T09:28:43;88.73;;;52.90;;
31390;SDS011;18022;45.492;11.548;2023-02-16T09:31:10;87.55;;;53.90;;
31390;SDS011;18022;45.492;11.548;2023-02-16T09:33:37;87.90;;;54.10;;
31390;SDS011;18022;45.492;11.548;2023-02-16T09:36:04;86.65;;;52.10;;
31390;SDS011;18022;45.492;11.548;2023-02-16T09:38:31;84.97;;;49.33;;
31390;SDS011;18022;45.492;11.548;2023-02-16T09:40:57;84.47;;;46.47;;
31390;SDS011;18022;45.492;11.548;2023-02-16T09:43:48;90.15;;;53.85;;
31390;SDS011;18022;45.492;11.548;2023-02-16T09:46:11;85.68;;;52.42;;
31390;SDS011;18022;45.492;11.548;2023-02-16T09:48:40;77.13;;;44.33;;
31390;SDS011;18022;45.492;11.548;2023-02-16T09:51:09;84.80;;;48.78;;
31390;SDS011;18022;45.492;11.548;2023-02-16T09:53:39;91.03;;;53.35;;
31390;SDS011;18022;45.492;11.548;2023-02-16T09:58:38;107.22;;;61.72;;
31390;SDS011;18022;45.492;11.548;2023-02-16T10:01:09;107.82;;;64.68;;
31390;SDS011;18022;45.492;11.548;2023-02-16T10:06:33;118.90;;;62.15;;
31390;SDS011;18022;45.492;11.548;2023-02-16T10:09:05;103.57;;;63.47;;
31390;SDS011;18022;45.492;11.548;2023-02-16T10:11:43;113.13;;;67.65;;
31390;SDS011;18022;45.492;11.548;2023-02-16T10:16:44;120.03;;;67.20;;
31390;SDS011;18022;45.492;11.548;2023-02-16T10:19:21;117.10;;;70.88;;
31390;SDS011;18022;45.492;11.548;2023-02-16T10:21:50;119.90;;;71.50;;
31390;SDS011;18022;45.492;11.548;2023-02-16T10:24:17;114.63;;;67.05;;
31390;SDS011;18022;45.492;11.548;2023-02-16T10:26:49;107.32;;;63.78;;
31390;SDS011;18022;45.492;11.548;2023-02-16T10:29:20;114.95;;;69.70;;
31390;SDS011;18022;45.492;11.548;2023-02-16T10:39:38;143.13;;;83.97;;
31390;SDS011;18022;45.492;11.548;2023-02-16T10:48:04;126.30;;;71.80;;
31390;SDS011;18022;45.492;11.548;2023-02-16T10:50:31;139.52;;;81.75;;
31390;SDS011;18022;45.492;11.548;2023-02-16T10:52:59;141.90;;;85.40;;
31390;SDS011;18022;45.492;11.548;2023-02-16T10:55:26;139.13;;;82.15;;
31390;SDS011;18022;45.492;11.548;2023-02-16T10:57:53;113.45;;;69.97;;
31390;SDS011;18022;45.492;11.548;2023-02-16T11:00:22;119.50;;;72.78;;
31390;SDS011;18022;45.492;11.548;2023-02-16T11:02:49;116.57;;;71.47;;
31390;SDS011;18022;45.492;11.548;2023-02-16T11:05:38;129.77;;;74.97;;
31390;SDS011;18022;45.492;11.548;2023-02-16T11:08:04;129.07;;;78.88;;
31390;SDS011;18022;45.492;11.548;2023-02-16T11:13:04;147.38;;;85.03;;
31390;SDS011;18022;45.492;11.548;2023-02-16T11:15:32;150.82;;;86.43;;
31390;SDS011;18022;45.492;11.548;2023-02-16T11:18:00;135.27;;;80.95;;
31390;SDS011;18022;45.492;11.548;2023-02-16T11:25:38;142.18;;;88.15;;
31390;SDS011;18022;45.492;11.548;2023-02-16T11:28:05;141.73;;;85.68;;
31390;SDS011;18022;45.492;11.548;2023-02-16T11:30:36;152.63;;;89.18;;
31390;SDS011;18022;45.492;11.548;2023-02-16T11:33:03;156.13;;;92.80;;
31390;SDS011;18022;45.492;11.548;2023-02-16T11:35:31;146.00;;;89.40;;
31390;SDS011;18022;45.492;11.548;2023-02-16T11:38:05;158.27;;;95.85;;
31390;SDS011;18022;45.492;11.548;2023-02-16T11:40:32;148.88;;;91.70;;
31390;SDS011;18022;45.492;11.548;2023-02-16T11:42:59;160.65;;;100.32;;
31390;SDS011;18022;45.492;11.548;2023-02-16T11:45:29;148.45;;;92.50;;
31390;SDS011;18022;45.492;11.548;2023-02-16T11:48:23;152.98;;;93.72;;
31390;SDS011;18022;45.492;11.548;2023-02-16T11:50:58;157.23;;;93.35;;
31390;SDS011;18022;45.492;11.548;2023-02-16T11:53:26;146.85;;;89.95;;
31390;SDS011;18022;45.492;11.548;2023-02-16T11:56:07;166.52;;;102.78;;
31390;SDS011;18022;45.492;11.548;2023-02-16T11:58:34;172.88;;;105.93;;
31390;SDS011;18022;45.492;11.548;2023-02-16T12:01:46;147.45;;;89.40;;
31390;SDS011;18022;45.492;11.548;2023-02-16T12:04:03;159.40;;;96.65;;
31390;SDS011;18022;45.492;11.548;2023-02-16T12:06:47;157.48;;;96.82;;
31390;SDS011;18022;45.492;11.548;2023-02-16T12:12:02;204.20;;;122.13;;
31390;SDS011;18022;45.492;11.548;2023-02-16T12:17:06;171.13;;;107.10;;
31390;SDS011;18022;45.492;11.548;2023-02-16T12:19:47;189.00;;;113.05;;
31390;SDS011;18022;45.492;11.548;2023-02-16T12:25:00;191.25;;;114.43;;
31390;SDS011;18022;45.492;11.548;2023-02-16T12:27:34;197.30;;;118.28;;
31390;SDS011;18022;45.492;11.548;2023-02-16T12:30:07;216.35;;;124.50;;
31390;SDS011;18022;45.492;11.548;2023-02-16T12:40:46;201.85;;;116.65;;
31390;SDS011;18022;45.492;11.548;2023-02-16T12:45:45;207.15;;;120.20;;
31390;SDS011;18022;45.492;11.548;2023-02-16T12:50:56;217.52;;;129.48;;
31390;SDS011;18022;45.492;11.548;2023-02-16T12:53:28;243.80;;;145.48;;
31390;SDS011;18022;45.492;11.548;2023-02-16T12:56:01;229.70;;;136.60;;
31390;SDS011;18022;45.492;11.548;2023-02-16T12:58:29;258.25;;;153.43;;
31390;SDS011;18022;45.492;11.548;2023-02-16T13:00:59;198.65;;;115.13;;
31390;SDS011;18022;45.492;11.548;2023-02-16T13:06:19;199.05;;;121.90;;
31390;SDS011;18022;45.492;11.548;2023-02-16T13:11:36;195.93;;;115.38;;
31390;SDS011;18022;45.492;11.548;2023-02-16T13:14:05;197.98;;;120.53;;
31390;SDS011;18022;45.492;11.548;2023-02-16T13:16:38;200.38;;;121.70;;
31390;SDS011;18022;45.492;11.548;2023-02-16T13:19:11;195.52;;;118.80;;
31390;SDS011;18022;45.492;11.548;2023-02-16T13:29:20;207.35;;;122.88;;
31390;SDS011;18022;45.492;11.548;2023-02-16T13:42:47;192.55;;;114.32;;
31390;SDS011;18022;45.492;11.548;2023-02-16T13:45:20;190.43;;;112.78;;
31390;SDS011;18022;45.492;11.548;2023-02-16T13:47:47;183.57;;;109.55;;
31390;SDS011;18022;45.492;11.548;2023-02-16T13:52:46;211.38;;;125.25;;
31390;SDS011;18022;45.492;11.548;2023-02-16T13:55:23;191.60;;;117.63;;
31390;SDS011;18022;45.492;11.548;2023-02-16T14:02:50;197.93;;;115.60;;
31390;SDS011;18022;45.492;11.548;2023-02-16T14:05:21;193.35;;;114.35;;
31390;SDS011;18022;45.492;11.548;2023-02-16T14:07:49;198.82;;;114.63;;
31390;SDS011;18022;45.492;11.548;2023-02-16T14:16:14;210.40;;;118.55;;
31390;SDS011;18022;45.492;11.548;2023-02-16T14:19:15;205.10;;;117.60;;
31390;SDS011;18022;45.492;11.548;2023-02-16T14:21:42;193.85;;;110.95;;
31390;SDS011;18022;45.492;11.548;2023-02-16T14:24:11;203.07;;;116.20;;
31390;SDS011;18022;45.492;11.548;2023-02-16T14:27:00;192.50;;;111.03;;
31390;SDS011;18022;45.492;11.548;2023-02-16T14:32:05;204.82;;;116.93;;
31390;SDS011;18022;45.492;11.548;2023-02-16T14:34:41;212.40;;;122.22;;
31390;SDS011;18022;45.492;11.548;2023-02-16T14:39:45;236.98;;;128.20;;
31390;SDS011;18022;45.492;11.548;2023-02-16T14:42:16;211.07;;;118.15;;
31390;SDS011;18022;45.492;11.548;2023-02-16T14:57:47;227.27;;;121.63;;
31390;SDS011;18022;45.492;11.548;2023-02-16T15:00:27;216.52;;;121.28;;
31390;SDS011;18022;45.492;11.548;2023-02-16T15:02:59;188.13;;;111.07;;
31390;SDS011;18022;45.492;11.548;2023-02-16T15:05:30;185.98;;;106.78;;
31390;SDS011;18022;45.492;11.548;2023-02-16T15:08:01;191.30;;;114.32;;
31390;SDS011;18022;45.492;11.548;2023-02-16T15:10:28;197.98;;;117.47;;
31390;SDS011;18022;45.492;11.548;2023-02-16T15:12:54;232.73;;;143.43;;
31390;SDS011;18022;45.492;11.548;2023-02-16T15:15:42;205.70;;;121.05;;
31390;SDS011;18022;45.492;11.548;2023-02-16T15:18:16;211.73;;;122.30;;
31390;SDS011;18022;45.492;11.548;2023-02-16T15:20:44;189.15;;;115.70;;
31390;SDS011;18022;45.492;11.548;2023-02-16T15:23:54;197.27;;;119.82;;
31390;SDS011;18022;45.492;11.548;2023-02-16T15:26:05;201.65;;;120.10;;
31390;SDS011;18022;45.492;11.548;2023-02-16T15:28:39;194.65;;;114.72;;
31390;SDS011;18022;45.492;11.548;2023-02-16T15:31:18;194.15;;;115.57;;
31390;SDS011;18022;45.492;11.548;2023-02-16T15:33:53;203.00;;;121.25;;
31390;SDS011;18022;45.492;11.548;2023-02-16T15:36:21;196.30;;;119.95;;
31390;SDS011;18022;45.492;11.548;2023-02-16T15:41:28;191.77;;;116.53;;
31390;SDS011;18022;45.492;11.548;2023-02-16T15:43:54;189.45;;;112.82;;
31390;SDS011;18022;45.492;11.548;2023-02-16T15:46:28;193.57;;;115.53;;
31390;SDS011;18022;45.492;11.548;2023-02-16T15:48:54;186.35;;;111.68;;
31390;SDS011;18022;45.492;11.548;2023-02-16T15:51:21;187.35;;;110.88;;
31390;SDS011;18022;45.492;11.548;2023-02-16T15:53:54;193.55;;;118.13;;
31390;SDS011;18022;45.492;11.548;2023-02-16T16:01:41;200.30;;;114.60;;
31390;SDS011;18022;45.492;11.548;2023-02-16T16:06:40;211.23;;;122.82;;
31390;SDS011;18022;45.492;11.548;2023-02-16T16:09:12;218.95;;;123.75;;
31390;SDS011;18022;45.492;11.548;2023-02-16T16:11:42;186.27;;;112.28;;
31390;SDS011;18022;45.492;11.548;2023-02-16T16:14:08;207.18;;;120.90;;
31390;SDS011;18022;45.492;11.548;2023-02-16T16:16:36;208.40;;;120.93;;
31390;SDS011;18022;45.492;11.548;2023-02-16T16:19:22;221.95;;;130.30;;
31390;SDS011;18022;45.492;11.548;2023-02-16T16:24:26;217.88;;;125.60;;
31390;SDS011;18022;45.492;11.548;2023-02-16T16:26:53;209.38;;;123.10;;
31390;SDS011;18022;45.492;11.548;2023-02-16T16:30:06;209.18;;;118.47;;
31390;SDS011;18022;45.492;11.548;2023-02-16T16:34:41;196.45;;;117.18;;
31390;SDS011;18022;45.492;11.548;2023-02-16T16:37:41;205.82;;;119.75;;
31390;SDS011;18022;45.492;11.548;2023-02-16T16:42:28;180.68;;;110.22;;
31390;SDS011;18022;45.492;11.548;2023-02-16T16:45:06;181.87;;;105.27;;
31390;SDS011;18022;45.492;11.548;2023-02-16T16:47:42;193.35;;;111.50;;
31390;SDS011;18022;45.492;11.548;2023-02-16T16:52:48;187.73;;;108.68;;
31390;SDS011;18022;45.492;11.548;2023-02-16T16:57:44;185.70;;;103.97;;
31390;SDS011;18022;45.492;11.548;2023-02-16T17:00:10;193.30;;;114.28;;